Time;durP1;ratioP1;P1;durP2;ratioP2;P2;SDS_P1;SDS_P2;PMS_P1;PMS_P2;Temp;Humidity;BMP_temperature;BMP_pressure;BME280_temperature;BME280_humidity;BME280_pressure;Samples;Min_cycle;Max_cycle;Signal;HPM_P1;HPM_P2
2022/06/10 00:00:49;;;;;;;5.38;1.00;;;10.70;99.90;;;;;;5014827;28;20077;-46
2022/06/10 00:03:17;;;;;;;8.25;1.40;;;9.90;99.90;;;;;;5014782;28;20393;-49
2022/06/10 00:05:47;;;;;;;5.60;1.23;;;9.90;99.90;;;;;;5014939;28;20048;-47
2022/06/10 00:08:16;;;;;;;6.72;1.30;;;10.00;99.90;;;;;;5013960;28;20038;-47
2022/06/10 00:10:45;;;;;;;5.43;1.00;;;10.80;99.90;;;;;;5014855;28;20397;-48
2022/06/10 00:13:12;;;;;;;8.32;1.30;;;9.90;99.90;;;;;;5014943;28;20125;-46
2022/06/10 00:15:38;;;;;;;8.93;1.42;;;9.80;99.90;;;;;;5014597;28;20064;-48
2022/06/10 00:18:04;;;;;;;7.10;1.35;;;11.10;99.90;;;;;;5014834;28;20100;-47
2022/06/10 00:20:32;;;;;;;8.63;1.60;;;9.80;99.90;;;;;;5014693;28;20114;-47
2022/06/10 00:22:59;;;;;;;6.00;1.67;;;9.50;99.90;;;;;;5014715;28;20045;-47
2022/06/10 00:25:25;;;;;;;8.55;1.60;;;9.80;99.90;;;;;;5014716;28;20077;-49
2022/06/10 00:27:52;;;;;;;9.00;1.38;;;9.50;99.90;;;;;;5014570;28;20042;-47
2022/06/10 00:30:28;;;;;;;10.48;2.30;;;9.70;99.90;;;;;;5014349;28;20080;-48
2022/06/10 00:32:55;;;;;;;7.47;1.40;;;9.80;99.90;;;;;;5014334;28;20509;-47
2022/06/10 00:35:21;;;;;;;10.18;2.17;;;9.50;99.90;;;;;;5014355;28;20033;-50
2022/06/10 00:37:46;;;;;;;8.27;1.85;;;9.50;99.90;;;;;;5014500;28;20245;-50
2022/06/10 00:40:17;;;;;;;12.02;1.85;;;9.40;99.90;;;;;;5014357;28;20122;-46
2022/06/10 00:42:43;;;;;;;7.97;1.67;;;10.00;99.90;;;;;;5014461;28;20038;-47
2022/06/10 00:45:47;;;;;;;9.23;2.65;;;10.20;99.90;;;;;;5014004;28;20124;-47
2022/06/10 00:48:17;;;;;;;7.40;1.90;;;9.70;99.90;;;;;;5014221;28;20424;-47
2022/06/10 00:50:44;;;;;;;4.85;1.85;;;9.70;99.90;;;;;;5014100;28;20034;-48
2022/06/10 00:53:14;;;;;;;7.80;2.15;;;9.50;99.90;;;;;;5014022;28;20367;-47
2022/06/10 00:55:42;;;;;;;13.35;2.75;;;9.40;99.90;;;;;;5012936;28;20042;-50
2022/06/10 00:58:11;;;;;;;10.38;2.10;;;9.40;99.90;;;;;;5013948;28;20541;-46
2022/06/10 01:00:38;;;;;;;7.75;1.70;;;10.00;99.90;;;;;;5013486;28;20049;-47
2022/06/10 01:03:04;;;;;;;7.35;2.28;;;9.70;99.90;;;;;;5014100;28;20045;-46
2022/06/10 01:05:31;;;;;;;7.72;1.85;;;9.70;99.90;;;;;;5014067;28;20037;-46
2022/06/10 01:08:02;;;;;;;8.13;2.80;;;9.50;99.90;;;;;;5014018;28;20048;-47
2022/06/10 01:10:32;;;;;;;6.40;2.13;;;9.70;99.90;;;;;;5013219;28;20050;-46
2022/06/10 01:13:26;;;;;;;10.35;2.67;;;9.60;99.90;;;;;;5013794;28;20042;-47
2022/06/10 01:15:51;;;;;;;8.32;2.47;;;9.70;99.90;;;;;;5013756;28;20054;-48
2022/06/10 01:18:42;;;;;;;7.43;2.60;;;9.70;99.90;;;;;;5012471;28;20069;-47
2022/06/10 01:21:21;;;;;;;9.57;2.78;;;9.70;99.90;;;;;;5013940;28;20073;-48
2022/06/10 01:24:17;;;;;;;11.57;4.20;;;9.60;99.90;;;;;;5013661;28;20042;-47
2022/06/10 01:30:10;;;;;;;10.52;3.67;;;9.60;99.90;;;;;;5012558;28;20104;-48
2022/06/10 01:33:12;;;;;;;10.83;3.43;;;9.60;99.90;;;;;;5013906;28;20045;-48
2022/06/10 01:35:46;;;;;;;8.45;2.95;;;9.60;99.90;;;;;;5013532;28;20049;-48
2022/06/10 01:38:32;;;;;;;11.63;3.67;;;9.60;99.90;;;;;;5013785;28;20046;-48
2022/06/10 01:41:06;;;;;;;13.23;3.33;;;10.50;99.90;;;;;;5013785;28;20042;-47
2022/06/10 01:43:55;;;;;;;11.82;3.80;;;9.50;99.90;;;;;;5013552;28;20049;-47
2022/06/10 01:46:33;;;;;;;16.40;3.78;;;10.70;99.90;;;;;;5013356;28;20500;-47
2022/06/10 01:49:07;;;;;;;12.88;4.65;;;9.40;99.90;;;;;;5013642;28;20069;-46
2022/06/10 01:51:40;;;;;;;12.30;4.13;;;9.50;99.90;;;;;;5013654;28;20124;-47
2022/06/10 01:54:20;;;;;;;8.35;4.50;;;9.50;99.90;;;;;;5013530;28;20034;-48
2022/06/10 01:56:50;;;;;;;17.05;4.97;;;9.40;99.90;;;;;;5013627;28;20049;-47
2022/06/10 01:59:20;;;;;;;13.15;4.68;;;9.40;99.90;;;;;;5013527;28;20038;-46
2022/06/10 02:01:54;;;;;;;11.27;4.38;;;9.30;99.90;;;;;;5013494;28;20045;-46
2022/06/10 02:04:25;;;;;;;9.80;3.80;;;9.60;99.90;;;;;;5013306;28;20046;-47
2022/06/10 02:06:59;;;;;;;8.80;3.95;;;9.80;99.90;;;;;;5013446;28;20037;-46
2022/06/10 02:09:34;;;;;;;10.20;4.15;;;9.20;99.90;;;;;;5013495;28;20042;-47
2022/06/10 02:12:10;;;;;;;10.00;4.20;;;9.00;99.90;;;;;;5014427;28;20180;-47
2022/06/10 02:14:43;;;;;;;14.82;4.90;;;9.10;99.90;;;;;;5017134;28;20040;-48
2022/06/10 02:17:12;;;;;;;10.60;4.40;;;9.00;99.90;;;;;;5016462;28;20460;-47
2022/06/10 02:19:42;;;;;;;15.00;4.55;;;9.00;99.90;;;;;;5017040;28;20120;-49
2022/06/10 02:22:16;;;;;;;7.78;3.83;;;9.00;99.90;;;;;;5017018;28;20041;-49
2022/06/10 02:24:46;;;;;;;15.63;4.45;;;10.00;99.90;;;;;;5016965;28;20437;-50
2022/06/10 02:27:20;;;;;;;9.43;4.90;;;8.80;99.90;;;;;;5016466;28;20041;-47
2022/06/10 02:30:05;;;;;;;11.38;4.57;;;10.00;99.90;;;;;;5016661;28;20084;-46
2022/06/10 02:32:32;;;;;;;16.45;7.72;;;8.90;99.90;;;;;;5016762;28;20048;-46
2022/06/10 02:34:58;;;;;;;14.38;5.18;;;8.70;99.90;;;;;;5016743;28;20153;-45
2022/06/10 02:37:46;;;;;;;10.80;4.95;;;8.90;99.90;;;;;;5015225;28;20058;-46
2022/06/10 02:40:30;;;;;;;11.32;5.25;;;8.80;99.90;;;;;;5016595;28;20042;-46
2022/06/10 02:43:06;;;;;;;10.82;4.72;;;8.70;99.90;;;;;;5016572;28;20068;-46
2022/06/10 02:46:00;;;;;;;9.48;5.45;;;8.70;99.90;;;;;;5016559;28;20042;-46
2022/06/10 02:48:43;;;;;;;11.10;5.10;;;8.70;99.90;;;;;;5016203;28;20497;-46
2022/06/10 02:51:08;;;;;;;9.95;4.68;;;8.60;99.90;;;;;;5016419;28;20045;-47
2022/06/10 02:53:35;;;;;;;11.90;5.10;;;8.60;99.90;;;;;;5016061;28;20042;-45
2022/06/10 02:56:01;;;;;;;13.30;5.05;;;8.40;99.90;;;;;;5014729;28;20046;-46
2022/06/10 03:01:22;;;;;;;9.35;5.68;;;8.60;99.90;;;;;;5016180;28;20061;-46
2022/06/10 03:04:06;;;;;;;9.07;5.40;;;8.60;99.90;;;;;;5016156;28;20038;-46
2022/06/10 03:06:44;;;;;;;13.15;5.15;;;8.70;99.90;;;;;;5015962;28;20050;-46
2022/06/10 03:09:25;;;;;;;10.98;5.40;;;9.50;99.90;;;;;;5015980;28;20091;-47
2022/06/10 03:12:02;;;;;;;8.13;4.75;;;9.60;99.90;;;;;;5015759;28;20044;-49
2022/06/10 03:14:48;;;;;;;13.75;5.10;;;8.80;99.90;;;;;;5015998;28;20389;-46
2022/06/10 03:17:40;;;;;;;10.85;5.03;;;8.80;99.90;;;;;;5015454;28;20471;-47
2022/06/10 03:20:28;;;;;;;10.00;4.97;;;8.90;99.90;;;;;;5014590;28;20050;-47
2022/06/10 03:23:22;;;;;;;14.05;4.95;;;8.90;99.90;;;;;;5015697;28;20125;-45
2022/06/10 03:26:16;;;;;;;13.68;5.43;;;9.00;99.90;;;;;;5015796;28;20124;-45
2022/06/10 03:28:44;;;;;;;8.13;4.35;;;9.00;99.90;;;;;;5014493;28;20058;-48
2022/06/10 03:31:14;;;;;;;12.02;4.47;;;9.00;99.90;;;;;;5014377;28;20069;-46
2022/06/10 03:34:03;;;;;;;13.75;5.47;;;9.10;99.90;;;;;;5015655;28;20176;-48
2022/06/10 03:36:33;;;;;;;12.68;4.70;;;9.10;99.90;;;;;;5015501;28;20041;-49
2022/06/10 03:39:01;;;;;;;10.60;5.32;;;9.40;99.90;;;;;;5015376;28;20045;-45
2022/06/10 03:41:33;;;;;;;10.90;5.22;;;9.10;99.90;;;;;;5015314;28;20053;-46
2022/06/10 03:44:03;;;;;;;9.25;4.65;;;9.20;99.90;;;;;;5015433;28;20485;-45
2022/06/10 03:46:33;;;;;;;14.05;5.45;;;9.10;99.90;;;;;;5015257;28;20042;-47
2022/06/10 03:49:06;;;;;;;11.60;4.07;;;9.20;99.90;;;;;;5015420;28;20436;-46
2022/06/10 03:51:32;;;;;;;8.30;4.45;;;9.20;99.90;;;;;;5015315;28;20030;-46
2022/06/10 03:53:58;;;;;;;8.63;3.95;;;9.10;99.90;;;;;;5014819;28;20501;-46
2022/06/10 03:56:25;;;;;;;11.23;4.50;;;9.20;99.90;;;;;;5014767;28;20125;-46
2022/06/10 03:58:51;;;;;;;12.23;4.75;;;9.60;99.90;;;;;;5013637;28;20049;-47
2022/06/10 04:01:18;;;;;;;13.02;4.18;;;9.30;99.90;;;;;;5015076;28;20081;-47
2022/06/10 04:03:44;;;;;;;8.73;4.43;;;9.60;99.90;;;;;;5015137;28;20137;-47
2022/06/10 04:06:10;;;;;;;15.15;4.95;;;9.70;99.90;;;;;;5014928;28;20121;-45
2022/06/10 04:08:35;;;;;;;7.47;3.90;;;9.60;99.90;;;;;;5014558;28;20045;-47
2022/06/10 04:11:01;;;;;;;13.68;5.45;;;10.80;99.90;;;;;;5014867;28;20036;-46
2022/06/10 04:13:27;;;;;;;11.85;4.75;;;9.70;99.90;;;;;;5014790;28;20474;-46
2022/06/10 04:15:52;;;;;;;13.43;4.13;;;10.00;99.90;;;;;;5014619;28;20509;-48
2022/06/10 04:18:18;;;;;;;11.32;4.10;;;10.40;99.90;;;;;;5014687;28;20046;-47
2022/06/10 04:20:44;;;;;;;10.05;3.85;;;10.50;99.90;;;;;;5014436;28;20129;-50
2022/06/10 04:23:10;;;;;;;8.93;3.17;;;11.30;99.90;;;;;;5014405;28;20045;-46
2022/06/10 04:25:37;;;;;;;10.50;4.05;;;11.70;99.90;;;;;;5014363;28;20088;-47
2022/06/10 04:28:04;;;;;;;8.23;2.92;;;11.50;99.90;;;;;;5014274;28;20042;-49
2022/06/10 04:30:36;;;;;;;7.93;2.50;;;11.90;99.90;;;;;;5014626;28;20053;-48
2022/06/10 04:33:03;;;;;;;8.05;2.25;;;12.70;99.90;;;;;;5014632;28;20037;-46
2022/06/10 04:35:29;;;;;;;9.77;2.63;;;13.00;99.90;;;;;;5013353;28;20501;-49
2022/06/10 04:37:56;;;;;;;9.35;2.25;;;13.30;99.90;;;;;;5014138;28;20466;-47
2022/06/10 04:40:25;;;;;;;8.65;3.30;;;13.20;99.90;;;;;;5014493;28;20492;-47
2022/06/10 04:42:52;;;;;;;8.88;2.45;;;13.00;99.90;;;;;;5014376;28;20053;-46
2022/06/10 04:45:22;;;;;;;7.55;2.63;;;13.00;99.90;;;;;;5014362;28;20045;-50
2022/06/10 04:47:47;;;;;;;11.25;2.53;;;12.80;99.90;;;;;;5014225;28;20046;-47
2022/06/10 04:50:17;;;;;;;9.98;2.35;;;12.70;99.90;;;;;;5014342;28;20446;-47
2022/06/10 04:52:42;;;;;;;6.55;2.55;;;12.60;99.90;;;;;;5014203;28;20393;-47
2022/06/10 04:55:09;;;;;;;7.45;2.55;;;12.70;99.90;;;;;;5013942;28;20112;-48
2022/06/10 04:57:36;;;;;;;8.05;2.38;;;12.70;99.90;;;;;;5013862;28;20485;-48
2022/06/10 05:00:04;;;;;;;9.13;2.33;;;12.70;99.90;;;;;;5014102;28;20073;-47
2022/06/10 05:02:30;;;;;;;9.80;2.38;;;12.80;99.90;;;;;;5013832;28;20049;-48
2022/06/10 05:04:56;;;;;;;9.68;2.38;;;12.80;99.90;;;;;;5014092;28;20033;-47
2022/06/10 05:07:21;;;;;;;8.88;2.20;;;13.60;99.90;;;;;;5013872;28;20041;-48
2022/06/10 05:09:47;;;;;;;14.27;4.03;;;13.10;99.90;;;;;;5013935;28;20525;-49
2022/06/10 05:12:13;;;;;;;10.88;2.80;;;13.30;99.90;;;;;;5013997;28;20117;-49
2022/06/10 05:14:38;;;;;;;7.00;3.08;;;13.80;99.90;;;;;;5013918;28;20066;-47
2022/06/10 05:17:04;;;;;;;13.50;3.33;;;13.90;99.90;;;;;;5013677;28;20062;-50
2022/06/10 05:19:30;;;;;;;10.75;3.15;;;13.70;99.90;;;;;;5013953;28;20100;-47
2022/06/10 05:21:57;;;;;;;7.78;2.35;;;13.90;99.90;;;;;;5013809;28;20038;-50
2022/06/10 05:24:23;;;;;;;9.40;3.50;;;14.30;99.90;;;;;;5013773;28;20042;-50
2022/06/10 05:26:49;;;;;;;7.10;2.97;;;14.70;99.90;;;;;;5013805;28;20393;-51
2022/06/10 05:29:15;;;;;;;10.95;3.30;;;15.10;99.90;;;;;;5013681;28;20034;-51
2022/06/10 05:31:40;;;;;;;11.65;2.72;;;15.50;99.90;;;;;;5013630;28;20069;-52
2022/06/10 05:36:51;;;;;;;9.90;2.72;;;16.50;99.90;;;;;;5013621;28;20107;-52
2022/06/10 05:39:17;;;;;;;6.40;2.88;;;17.00;99.90;;;;;;5013691;28;20057;-52
2022/06/10 05:44:27;;;;;;;7.10;2.55;;;17.50;99.90;;;;;;5013380;28;20128;-52
2022/06/10 05:46:53;;;;;;;7.88;2.78;;;17.60;99.90;;;;;;5014085;28;20172;-52
2022/06/10 05:49:20;;;;;;;8.05;2.83;;;17.80;99.90;;;;;;5015887;28;20537;-53
2022/06/10 05:51:45;;;;;;;7.13;3.05;;;18.00;99.90;;;;;;5016988;28;20433;-53
2022/06/10 05:54:11;;;;;;;12.35;2.45;;;18.20;99.90;;;;;;5015458;28;20057;-54
2022/06/10 05:56:37;;;;;;;8.73;2.30;;;18.50;99.90;;;;;;5015538;28;20042;-54
2022/06/10 05:59:03;;;;;;;9.52;2.78;;;19.20;99.90;;;;;;5016498;28;20049;-53
2022/06/10 06:01:29;;;;;;;9.65;2.20;;;19.50;99.90;;;;;;5016642;28;20052;-54
2022/06/10 06:03:55;;;;;;;6.72;2.30;;;20.10;99.80;;;;;;5015035;28;20046;-53
2022/06/10 06:06:21;;;;;;;10.27;1.65;;;20.30;98.50;;;;;;5016167;28;20092;-53
2022/06/10 06:08:48;;;;;;;7.88;1.92;;;20.60;97.30;;;;;;5016067;28;20089;-54
2022/06/10 06:11:17;;;;;;;9.20;2.20;;;20.60;96.50;;;;;;5016041;28;20073;-53
2022/06/10 06:13:43;;;;;;;9.07;2.25;;;20.50;95.80;;;;;;5015851;28;20108;-52
2022/06/10 06:16:13;;;;;;;6.20;1.85;;;20.30;95.30;;;;;;5015788;28;20438;-52
2022/06/10 06:18:39;;;;;;;7.38;1.60;;;20.00;94.90;;;;;;5015801;28;20069;-54
2022/06/10 06:21:05;;;;;;;7.28;1.80;;;19.80;95.30;;;;;;5016064;28;20046;-54
2022/06/10 06:23:31;;;;;;;11.68;1.95;;;19.50;95.70;;;;;;5014766;28;20078;-53
2022/06/10 06:25:57;;;;;;;7.50;1.92;;;19.30;96.00;;;;;;5016019;28;20413;-52
2022/06/10 06:28:22;;;;;;;7.57;1.50;;;19.10;96.20;;;;;;5016053;28;20042;-53
2022/06/10 06:30:48;;;;;;;7.38;1.30;;;19.10;96.70;;;;;;5015986;28;20482;-54
2022/06/10 06:33:14;;;;;;;7.32;1.38;;;18.90;96.80;;;;;;5015150;28;20124;-52
2022/06/10 06:35:44;;;;;;;7.03;1.88;;;18.80;96.80;;;;;;5031457;28;20030;-53
2022/06/10 06:38:10;;;;;;;6.60;1.42;;;18.80;96.90;;;;;;5016209;28;20053;-53
2022/06/10 06:40:36;;;;;;;7.85;2.10;;;18.70;96.90;;;;;;5016184;28;20413;-52
2022/06/10 06:43:02;;;;;;;9.68;2.20;;;18.70;97.10;;;;;;5016336;28;20041;-53
2022/06/10 06:45:28;;;;;;;7.25;1.98;;;18.70;96.90;;;;;;5016452;28;20042;-53
2022/06/10 06:47:54;;;;;;;8.65;1.80;;;18.60;96.80;;;;;;5016163;28;20048;-54
2022/06/10 06:50:27;;;;;;;8.13;1.88;;;18.60;97.20;;;;;;5016251;28;20117;-53
2022/06/10 06:52:53;;;;;;;8.65;2.25;;;18.60;97.50;;;;;;5016229;28;20038;-53
2022/06/10 06:55:20;;;;;;;7.15;2.47;;;18.60;97.60;;;;;;5015804;28;20109;-53
2022/06/10 06:57:47;;;;;;;7.15;2.13;;;18.60;97.50;;;;;;5015993;28;20050;-52
2022/06/10 07:00:15;;;;;;;6.65;1.75;;;18.40;97.50;;;;;;5015164;28;20052;-53
2022/06/10 07:02:41;;;;;;;11.02;2.63;;;18.40;97.80;;;;;;5015826;28;20546;-53
2022/06/10 07:05:07;;;;;;;9.80;2.17;;;18.50;98.10;;;;;;5015947;28;20042;-53
2022/06/10 07:07:33;;;;;;;8.23;1.90;;;18.80;98.40;;;;;;5015678;28;20037;-57
2022/06/10 07:09:59;;;;;;;9.55;2.17;;;19.20;98.10;;;;;;5015829;28;20042;-56
2022/06/10 07:12:25;;;;;;;8.93;2.40;;;19.30;97.70;;;;;;5014670;28;20045;-57
2022/06/10 07:14:51;;;;;;;6.40;2.28;;;19.50;97.30;;;;;;5016070;28;20037;-57
2022/06/10 07:17:17;;;;;;;10.30;2.40;;;19.70;97.00;;;;;;5015597;28;20413;-56
2022/06/10 07:19:45;;;;;;;10.18;2.28;;;19.70;96.70;;;;;;5015724;28;20038;-56
2022/06/10 07:22:12;;;;;;;10.38;3.05;;;19.60;96.50;;;;;;5014327;28;20066;-54
2022/06/10 07:24:38;;;;;;;11.40;2.78;;;19.30;96.00;;;;;;5015703;28;20081;-53
2022/06/10 07:27:04;;;;;;;10.05;2.35;;;19.20;96.20;;;;;;5014283;28;20092;-54
2022/06/10 07:29:30;;;;;;;6.13;2.40;;;19.00;96.80;;;;;;5015709;28;20041;-53
2022/06/10 07:31:56;;;;;;;8.27;2.88;;;19.20;97.30;;;;;;5015352;28;20038;-53
2022/06/10 07:34:21;;;;;;;10.15;2.92;;;18.80;97.90;;;;;;5014020;28;20044;-54
2022/06/10 07:36:47;;;;;;;9.48;2.90;;;18.60;98.60;;;;;;5015580;28;20038;-54
2022/06/10 07:39:13;;;;;;;13.68;3.75;;;18.60;99.20;;;;;;5015513;28;20118;-52
2022/06/10 07:42:00;;;;;;;11.45;2.90;;;18.70;99.70;;;;;;5013930;28;20069;-54
2022/06/10 07:44:31;;;;;;;8.80;3.22;;;18.70;99.90;;;;;;5015357;28;20112;-52
2022/06/10 07:46:59;;;;;;;8.38;3.33;;;18.80;99.90;;;;;;5015304;28;20077;-51
2022/06/10 07:49:25;;;;;;;9.73;3.97;;;18.90;99.90;;;;;;5014965;28;20077;-54
2022/06/10 07:51:51;;;;;;;5.18;2.90;;;19.00;99.90;;;;;;5015302;28;20034;-53
2022/06/10 07:54:17;;;;;;;6.53;2.50;;;19.00;99.90;;;;;;5014807;28;20045;-54
2022/06/10 07:56:43;;;;;;;7.95;3.10;;;19.00;99.90;;;;;;5013693;28;20073;-53
2022/06/10 07:59:09;;;;;;;5.63;2.13;;;19.10;99.90;;;;;;5014802;28;20073;-52
2022/06/10 08:01:35;;;;;;;5.75;2.45;;;19.20;99.90;;;;;;5015321;28;20046;-54
2022/06/10 08:04:02;;;;;;;8.45;3.00;;;19.20;99.90;;;;;;5015088;28;20049;-52
2022/06/10 08:06:29;;;;;;;7.10;2.97;;;19.40;99.90;;;;;;5014946;28;20049;-54
2022/06/10 08:08:55;;;;;;;9.23;2.65;;;19.50;99.90;;;;;;5014957;28;20477;-57
2022/06/10 08:11:23;;;;;;;5.68;2.40;;;19.70;99.90;;;;;;5014556;28;20073;-56
2022/06/10 08:13:49;;;;;;;7.35;2.05;;;19.90;99.90;;;;;;5029963;28;20065;-56
2022/06/10 08:16:14;;;;;;;6.57;2.50;;;20.10;99.60;;;;;;5013793;28;20096;-42
2022/06/10 08:18:41;;;;;;;4.35;2.67;;;20.20;98.80;;;;;;5006625;28;20097;-42
2022/06/10 08:23:52;;;;;;;8.10;3.25;;;20.20;97.80;;;;;;5006879;28;20104;-39
2022/06/10 08:26:20;;;;;;;11.65;3.38;;;20.30;97.90;;;;;;5007012;28;20618;-40
2022/06/10 08:28:47;;;;;;;9.07;3.00;;;20.40;97.70;;;;;;5006598;28;20045;-40
2022/06/10 08:31:13;;;;;;;7.60;2.65;;;20.50;97.90;;;;;;5007879;28;20052;-39
2022/06/10 08:33:40;;;;;;;9.48;2.63;;;20.50;97.70;;;;;;5008866;28;20045;-42
2022/06/10 08:36:06;;;;;;;8.45;2.53;;;20.50;97.20;;;;;;5009285;28;20038;-40
2022/06/10 08:38:33;;;;;;;9.45;2.88;;;20.50;97.10;;;;;;5008065;28;20081;-40
2022/06/10 08:41:25;;;;;;;8.73;2.95;;;20.50;97.00;;;;;;5008508;28;20392;-40
2022/06/10 08:44:00;;;;;;;;;;;20.50;96.80;;;;;;5009743;28;20455;-42
2022/06/10 08:46:47;;;;;;;7.93;2.72;;;20.50;97.10;;;;;;5009086;28;19931;-40
2022/06/10 08:50:00;;;;;;;7.10;2.85;;;20.50;96.90;;;;;;5009137;28;20049;-40
2022/06/10 08:52:28;;;;;;;11.15;2.83;;;20.60;96.60;;;;;;5006848;28;20041;-40
2022/06/10 08:55:17;;;;;;;7.82;2.53;;;20.80;96.50;;;;;;5006221;28;20607;-40
2022/06/10 08:57:47;;;;;;;8.75;2.83;;;21.10;96.40;;;;;;5008458;28;20405;-41
2022/06/10 09:00:31;;;;;;;10.57;2.83;;;21.20;96.10;;;;;;5009366;28;20045;-44
2022/06/10 09:03:05;;;;;;;5.90;2.13;;;21.10;95.40;;;;;;5009188;28;20073;-40
2022/06/10 09:05:39;;;;;;;6.60;2.25;;;20.90;95.40;;;;;;5009423;28;20076;-39
2022/06/10 09:08:12;;;;;;;5.90;2.45;;;20.80;95.50;;;;;;5008790;28;20497;-40
2022/06/10 09:10:57;;;;;;;9.45;3.22;;;21.30;96.00;;;;;;5008644;28;20041;-40
2022/06/10 09:13:25;;;;;;;10.45;2.53;;;22.30;95.60;;;;;;5008779;28;20586;-40
2022/06/10 09:16:13;;;;;;;7.38;2.20;;;23.20;94.40;;;;;;5008602;28;20133;-40
2022/06/10 09:18:45;;;;;;;8.02;2.10;;;23.70;92.60;;;;;;5008607;28;20556;-41
2022/06/10 09:21:44;;;;;;;8.43;2.28;;;23.90;91.70;;;;;;5008276;28;20084;-40
2022/06/10 09:24:20;;;;;;;6.78;2.25;;;23.60;90.40;;;;;;5008623;28;20140;-41
2022/06/10 09:26:58;;;;;;;5.82;1.70;;;23.40;90.20;;;;;;5008629;28;20061;-39
2022/06/10 09:29:24;;;;;;;7.30;1.65;;;23.20;90.30;;;;;;5008948;28;20049;-40
2022/06/10 09:32:23;;;;;;;11.40;2.70;;;23.00;90.80;;;;;;5008833;28;20564;-41
2022/06/10 09:34:52;;;;;;;5.45;1.20;;;22.60;90.20;;;;;;5008419;28;20413;-40
2022/06/10 09:37:17;;;;;;;8.48;2.13;;;22.40;91.00;;;;;;5008773;28;20050;-41
2022/06/10 09:43:57;;;;;;;7.60;2.22;;;22.00;90.90;;;;;;4986382;28;20054;-40
2022/06/10 09:46:35;;;;;;;6.28;2.30;;;21.80;91.20;;;;;;4986274;28;20050;-41
2022/06/10 09:49:20;;;;;;;8.50;1.80;;;21.90;91.60;;;;;;5004939;28;20088;-41
2022/06/10 09:52:07;;;;;;;5.55;1.77;;;21.90;91.80;;;;;;5008972;28;20037;-40
2022/06/10 09:54:59;;;;;;;8.63;2.13;;;21.80;91.40;;;;;;5008570;28;20516;-41
2022/06/10 09:57:46;;;;;;;9.50;2.08;;;21.50;92.00;;;;;;5008670;28;20045;-41
2022/06/10 10:00:21;;;;;;;5.75;2.05;;;21.30;92.50;;;;;;5008532;28;20042;-40
2022/06/10 10:03:10;;;;;;;5.35;1.95;;;21.00;92.50;;;;;;5008827;28;20046;-40
2022/06/10 10:05:45;;;;;;;5.72;1.77;;;20.80;92.70;;;;;;5008733;28;20380;-40
2022/06/10 10:08:40;;;;;;;5.18;1.60;;;20.80;93.20;;;;;;5008775;28;20042;-40
2022/06/10 10:11:17;;;;;;;7.25;2.30;;;21.00;93.40;;;;;;5008266;28;20105;-40
2022/06/10 10:14:11;;;;;;;8.32;1.58;;;21.20;93.40;;;;;;5009073;28;20065;-42
2022/06/10 10:16:45;;;;;;;5.38;1.92;;;21.60;93.40;;;;;;5008754;28;20549;-40
2022/06/10 10:19:52;;;;;;;7.15;1.92;;;22.00;93.20;;;;;;5008874;28;20041;-41
2022/06/10 10:22:42;;;;;;;4.45;1.30;;;22.20;92.30;;;;;;4989294;28;20394;-40
2022/06/10 10:25:15;;;;;;;6.07;1.58;;;22.40;92.50;;;;;;5008312;28;20045;-40
2022/06/10 10:27:41;;;;;;;7.72;1.92;;;22.50;92.00;;;;;;5008391;28;20109;-40
2022/06/10 10:30:46;;;;;;;7.45;2.00;;;22.60;91.60;;;;;;5007804;28;20046;-39
2022/06/10 10:33:14;;;;;;;8.27;1.67;;;22.90;91.30;;;;;;5007999;28;20044;-40
2022/06/10 10:35:48;;;;;;;8.52;2.00;;;23.30;91.30;;;;;;5011326;28;20924;-41
2022/06/10 10:38:38;;;;;;;6.28;1.55;;;23.80;90.60;;;;;;5011291;28;20041;-40
2022/06/10 10:41:25;;;;;;;8.30;1.65;;;24.00;88.90;;;;;;5011483;28;20063;-40
2022/06/10 10:43:55;;;;;;;5.95;1.65;;;24.00;87.40;;;;;;5011769;28;20439;-41
2022/06/10 10:46:37;;;;;;;7.15;1.27;;;23.70;87.20;;;;;;5011481;28;20069;-41
2022/06/10 10:49:25;;;;;;;5.40;1.15;;;23.60;86.50;;;;;;5011828;28;20045;-40
2022/06/10 10:51:51;;;;;;;8.23;1.65;;;23.80;87.90;;;;;;5011069;28;20060;-40
2022/06/10 10:54:27;;;;;;;8.32;1.63;;;23.90;87.10;;;;;;5010847;28;20046;-40
2022/06/10 10:56:54;;;;;;;5.53;1.20;;;23.70;86.50;;;;;;5010127;28;20430;-41
2022/06/10 10:59:37;;;;;;;5.60;1.67;;;23.60;87.90;;;;;;5009580;28;20402;-42
2022/06/10 11:02:25;;;;;;;6.32;1.55;;;23.50;87.30;;;;;;5011356;28;20077;-40
2022/06/10 11:04:51;;;;;;;6.97;1.52;;;23.40;88.30;;;;;;5011138;28;20042;-41
2022/06/10 11:07:20;;;;;;;5.38;1.13;;;23.30;88.60;;;;;;5011117;28;20088;-40
2022/06/10 11:09:52;;;;;;;4.10;1.02;;;23.60;87.40;;;;;;5010714;28;20441;-41
2022/06/10 11:12:22;;;;;;;;;;;24.20;87.30;;;;;;5011287;28;20077;-40
2022/06/10 11:14:56;;;;;;;5.07;1.30;;;24.50;89.10;;;;;;5011140;28;19972;-40
2022/06/10 11:17:23;;;;;;;8.38;1.73;;;24.70;86.00;;;;;;5010336;28;20108;-40
2022/06/10 11:19:57;;;;;;;4.72;1.10;;;24.60;84.60;;;;;;5011038;28;20053;-40
2022/06/10 11:22:28;;;;;;;4.47;1.20;;;24.20;83.70;;;;;;5010438;28;20572;-42
2022/06/10 11:25:22;;;;;;;4.40;1.40;;;24.00;83.70;;;;;;5009588;28;20449;-40
2022/06/10 11:27:48;;;;;;;5.15;1.05;;;23.50;84.40;;;;;;5010724;28;20046;-41
2022/06/10 11:30:13;;;;;;;6.18;1.10;;;23.40;85.50;;;;;;5011072;28;20050;-40
2022/06/10 11:32:49;;;;;;;6.85;1.23;;;23.50;86.60;;;;;;5010606;28;20185;-40
2022/06/10 11:35:34;;;;;;;10.68;1.60;;;23.70;86.80;;;;;;5010183;28;20128;-39
2022/06/10 11:38:18;;;;;;;4.00;1.00;;;24.00;84.70;;;;;;5010473;28;20046;-40
2022/06/10 11:40:46;;;;;;;7.82;1.10;;;24.20;86.10;;;;;;5010534;28;20045;-41
2022/06/10 11:43:25;;;;;;;8.70;1.00;;;24.60;85.40;;;;;;5010254;28;20085;-41
2022/06/10 11:46:05;;;;;;;6.13;1.38;;;24.80;84.30;;;;;;5008371;28;20064;-41
2022/06/10 11:48:42;;;;;;;5.43;1.48;;;24.80;82.40;;;;;;5009941;28;20096;-40
2022/06/10 11:51:33;;;;;;;3.90;0.70;;;25.00;82.10;;;;;;5010133;28;20108;-40
2022/06/10 11:54:26;;;;;;;5.95;1.67;;;25.40;84.20;;;;;;5009960;28;20096;-41
2022/06/10 12:00:02;;;;;;;3.33;0.70;;;26.00;81.00;;;;;;5009924;28;20060;-40
2022/06/10 12:02:52;;;;;;;9.60;1.48;;;26.30;80.80;;;;;;5009438;28;20042;-40
2022/06/10 12:05:23;;;;;;;7.25;1.33;;;26.30;80.50;;;;;;5009691;28;20052;-40
2022/06/10 12:08:07;;;;;;;5.72;1.80;;;25.90;79.50;;;;;;5009954;28;20049;-40
2022/06/10 12:10:52;;;;;;;6.25;2.10;;;25.50;80.10;;;;;;5009265;28;20038;-41
2022/06/10 12:13:18;;;;;;;7.20;1.95;;;25.20;80.00;;;;;;5009666;28;20030;-40
2022/06/10 12:15:57;;;;;;;6.10;1.63;;;24.90;80.60;;;;;;5009241;28;20054;-41
2022/06/10 12:18:29;;;;;;;5.68;1.63;;;24.70;80.30;;;;;;5009607;28;20402;-42
2022/06/10 12:21:02;;;;;;;6.35;1.40;;;24.30;81.10;;;;;;5009713;28;20086;-40
2022/06/10 12:23:30;;;;;;;6.80;1.80;;;23.90;82.10;;;;;;5009512;28;20135;-41
2022/06/10 12:26:33;;;;;;;6.80;1.40;;;23.60;84.20;;;;;;5009776;28;20050;-40
2022/06/10 12:29:20;;;;;;;6.03;1.63;;;23.40;85.10;;;;;;5009796;28;20135;-41
2022/06/10 12:32:25;;;;;;;6.25;1.48;;;23.20;86.40;;;;;;5009356;28;20371;-40
2022/06/10 12:35:04;;;;;;;5.00;1.20;;;23.00;86.90;;;;;;5009551;28;20104;-40
2022/06/10 12:37:35;;;;;;;5.18;1.42;;;23.20;87.10;;;;;;5009556;28;20060;-41
2022/06/10 12:40:12;;;;;;;3.38;0.90;;;23.50;87.00;;;;;;5009568;28;20056;-40
2022/06/10 12:42:46;;;;;;;6.22;1.00;;;23.60;86.50;;;;;;5009296;28;20081;-40
2022/06/10 12:45:17;;;;;;;8.07;1.40;;;23.60;85.40;;;;;;5009533;28;20050;-40
2022/06/10 12:47:44;;;;;;;5.95;1.20;;;23.40;85.40;;;;;;5009119;28;20077;-40
2022/06/10 12:50:23;;;;;;;5.32;1.27;;;23.10;85.70;;;;;;5009152;28;20048;-42
2022/06/10 12:53:06;;;;;;;5.43;1.38;;;23.10;86.40;;;;;;5009242;28;20050;-41
2022/06/10 12:55:44;;;;;;;5.20;1.13;;;23.00;87.20;;;;;;5009011;28;20042;-41
2022/06/10 12:58:40;;;;;;;8.20;1.50;;;23.30;87.10;;;;;;5008680;28;20049;-40
2022/06/10 13:01:20;;;;;;;10.00;1.35;;;23.70;85.40;;;;;;5009454;28;20397;-40
2022/06/10 13:03:48;;;;;;;8.48;1.50;;;24.20;86.70;;;;;;5009100;28;20973;-42
2022/06/10 13:06:32;;;;;;;6.72;1.20;;;24.40;85.20;;;;;;5009405;28;20473;-40
2022/06/10 13:09:10;;;;;;;7.45;1.02;;;24.60;84.40;;;;;;5007737;28;20401;-40
2022/06/10 13:11:54;;;;;;;6.32;1.55;;;24.80;84.50;;;;;;5008617;28;20415;-40
2022/06/10 13:14:43;;;;;;;4.95;1.20;;;25.00;83.90;;;;;;5009245;28;20049;-41
2022/06/10 13:17:26;;;;;;;9.85;1.40;;;25.00;82.00;;;;;;5008965;28;20419;-40
2022/06/10 13:19:54;;;;;;;8.48;0.93;;;24.90;81.60;;;;;;5009002;28;20053;-41
2022/06/10 13:22:20;;;;;;;5.45;1.10;;;24.90;80.60;;;;;;5008930;28;20053;-40
2022/06/10 13:24:52;;;;;;;4.88;0.85;;;24.90;79.70;;;;;;5008655;28;20037;-40
2022/06/10 13:27:27;;;;;;;7.38;1.20;;;25.00;80.70;;;;;;5007498;28;20135;-40
2022/06/10 13:30:15;;;;;;;4.22;0.73;;;25.10;80.80;;;;;;5009174;28;20096;-40
2022/06/10 13:32:53;;;;;;;7.57;1.20;;;25.20;79.70;;;;;;5008695;28;20580;-41
2022/06/10 13:35:45;;;;;;;7.47;1.38;;;25.10;79.00;;;;;;5008730;28;20053;-40
2022/06/10 13:38:34;;;;;;;6.65;0.68;;;24.80;78.20;;;;;;5009001;28;20517;-41
2022/06/10 13:41:56;;;;;;;6.28;0.98;;;24.50;79.30;;;;;;5008740;28;20052;-40